Time;durP1;ratioP1;P1;durP2;ratioP2;P2;SDS_P1;SDS_P2;PMS_P1;PMS_P2;Temp;Humidity;BMP_temperature;BMP_pressure;BME280_temperature;BME280_humidity;BME280_pressure;Samples;Min_cycle;Max_cycle;Signal;HPM_P1;HPM_P2
2021/12/15 09:06:39;;;;;;;141.75;59.67;;;3.60;99.90;;;;;;5107856;27;20389;-61
2021/12/15 09:09:07;;;;;;;122.70;53.72;;;3.60;99.90;;;;;;5108150;28;20024;-60
2021/12/15 09:11:34;;;;;;;117.55;55.38;;;3.70;99.90;;;;;;5105660;28;20103;-59
2021/12/15 09:14:01;;;;;;;170.07;66.35;;;3.90;99.90;;;;;;5108580;28;20073;-56
2021/12/15 09:16:30;;;;;;;102.90;50.95;;;4.20;99.90;;;;;;5108591;28;20120;-54
2021/12/15 09:18:56;;;;;;;98.68;50.10;;;4.30;99.90;;;;;;5108323;28;20031;-58
2021/12/15 09:21:25;;;;;;;105.88;51.15;;;4.50;99.90;;;;;;5108615;28;20020;-63
2021/12/15 09:23:50;;;;;;;101.50;50.30;;;4.70;99.90;;;;;;5108745;28;20059;-55
2021/12/15 09:26:17;;;;;;;88.38;45.47;;;4.90;99.90;;;;;;5107774;28;20445;-60
2021/12/15 09:28:42;;;;;;;82.28;42.88;;;5.00;99.90;;;;;;5102250;28;20111;-62
2021/12/15 09:31:09;;;;;;;106.28;49.75;;;5.20;99.90;;;;;;5099922;28;20111;-57
2021/12/15 09:33:38;;;;;;;115.63;54.88;;;5.30;99.90;;;;;;5106499;28;20016;-55
2021/12/15 09:36:05;;;;;;;133.27;61.97;;;5.20;99.90;;;;;;5106915;28;20032;-60
2021/12/15 09:38:32;;;;;;;169.95;75.13;;;5.30;99.90;;;;;;5092253;28;20028;-64
2021/12/15 09:41:00;;;;;;;155.75;69.72;;;5.20;99.90;;;;;;5093654;28;20020;-68
2021/12/15 09:43:28;;;;;;;143.45;65.25;;;5.10;99.90;;;;;;5106434;28;20420;-56
2021/12/15 09:46:03;;;;;;;173.27;81.65;;;5.20;99.90;;;;;;5106261;28;20342;-58
2021/12/15 09:57:27;;;;;;;126.68;69.57;;;5.70;99.90;;;;;;5090866;28;20139;-68
2021/12/15 10:02:57;;;;;;;146.68;75.80;;;6.00;99.90;;;;;;5095443;28;20039;-58
2021/12/15 10:05:36;;;;;;;122.72;63.03;;;6.00;99.90;;;;;;5092588;28;20050;-57
2021/12/15 10:11:14;;;;;;;136.82;69.28;;;6.20;99.90;;;;;;5086558;28;20094;-57
2021/12/15 10:19:46;;;;;;;96.00;49.47;;;6.60;99.90;;;;;;5046304;28;20604;-61
2021/12/15 10:22:17;;;;;;;81.78;44.65;;;6.60;99.90;;;;;;5074293;28;20382;-60
2021/12/15 10:24:54;;;;;;;74.47;42.80;;;6.60;99.90;;;;;;5073144;28;20040;-58
2021/12/15 10:27:48;;;;;;;74.28;42.63;;;6.60;99.90;;;;;;5080787;28;20047;-54
2021/12/15 10:30:18;;;;;;;72.78;41.25;;;6.60;99.90;;;;;;5091622;28;20039;-68
2021/12/15 10:32:47;;;;;;;79.47;41.67;;;6.60;99.90;;;;;;5093917;28;20036;-58
2021/12/15 10:35:21;;;;;;;87.20;42.92;;;6.70;99.90;;;;;;5093911;28;20378;-57
2021/12/15 10:38:28;;;;;;;68.10;39.70;;;6.70;99.90;;;;;;5093701;28;20024;-69
2021/12/15 10:40:58;;;;;;;80.47;42.75;;;6.80;99.90;;;;;;5083344;28;20028;-55
2021/12/15 10:43:40;;;;;;;83.20;44.85;;;6.80;99.90;;;;;;5081500;28;20485;-62
2021/12/15 10:46:14;;;;;;;73.95;41.83;;;6.90;99.90;;;;;;5091308;28;20482;-60
2021/12/15 10:48:47;;;;;;;69.65;39.88;;;6.90;99.90;;;;;;5092566;28;20024;-62
2021/12/15 10:51:31;;;;;;;74.68;40.40;;;7.00;99.90;;;;;;5091606;28;20024;-55
2021/12/15 10:54:01;;;;;;;69.43;39.75;;;6.90;99.90;;;;;;5093147;28;20047;-55
2021/12/15 10:56:32;;;;;;;110.28;53.90;;;7.00;99.90;;;;;;5092986;28;20389;-61
2021/12/15 10:59:03;;;;;;;113.22;58.53;;;7.10;99.90;;;;;;5093533;28;20024;-57
2021/12/15 11:01:34;;;;;;;114.40;62.55;;;7.20;99.90;;;;;;5094349;28;20073;-58
2021/12/15 11:04:00;;;;;;;96.60;54.30;;;7.30;99.90;;;;;;5089273;28;20032;-58
2021/12/15 11:06:33;;;;;;;133.55;67.95;;;7.30;99.90;;;;;;5073315;28;20048;-59
2021/12/15 11:09:20;;;;;;;101.45;55.78;;;7.30;99.90;;;;;;5070904;28;20033;-60
2021/12/15 11:12:02;;;;;;;121.78;63.90;;;7.40;99.90;;;;;;5087081;28;20030;-59
2021/12/15 11:14:37;;;;;;;101.00;55.92;;;7.50;99.90;;;;;;5079503;28;20074;-64
2021/12/15 11:17:20;;;;;;;127.20;64.40;;;7.60;99.90;;;;;;5078510;28;20291;-60
2021/12/15 11:19:57;;;;;;;115.25;64.15;;;7.60;99.90;;;;;;5081292;28;20043;-62
2021/12/15 11:22:36;;;;;;;134.05;69.82;;;7.70;99.90;;;;;;5080410;28;20115;-57
2021/12/15 11:25:11;;;;;;;144.50;76.38;;;8.20;99.90;;;;;;5071380;28;20646;-61
2021/12/15 11:27:37;;;;;;;125.60;67.90;;;8.50;99.90;;;;;;5078392;28;20077;-63
2021/12/15 11:30:07;;;;;;;113.22;63.33;;;8.70;99.90;;;;;;5074021;28;20025;-60
2021/12/15 11:32:45;;;;;;;103.50;59.45;;;8.40;99.90;;;;;;5077700;28;20481;-56
2021/12/15 11:35:15;;;;;;;119.32;62.20;;;8.30;99.90;;;;;;5093890;28;20024;-55
2021/12/15 11:38:00;;;;;;;104.38;56.35;;;8.10;99.90;;;;;;5082569;28;20029;-58
2021/12/15 11:40:31;;;;;;;94.43;54.63;;;8.00;99.90;;;;;;5073392;28;20043;-59
2021/12/15 11:42:57;;;;;;;148.32;75.60;;;8.00;99.90;;;;;;5072692;28;20021;-55
2021/12/15 11:45:24;;;;;;;121.00;65.35;;;8.00;99.90;;;;;;5072326;28;20039;-58
2021/12/15 11:47:50;;;;;;;108.93;60.22;;;7.90;99.90;;;;;;5074265;28;20052;-63
2021/12/15 11:50:21;;;;;;;116.13;63.25;;;7.90;99.90;;;;;;5081015;28;20058;-62
2021/12/15 11:52:49;;;;;;;110.93;61.70;;;7.90;99.90;;;;;;5071571;28;20093;-63
2021/12/15 11:55:30;;;;;;;120.45;59.30;;;7.90;99.90;;;;;;5071457;28;20540;-56
2021/12/15 11:57:58;;;;;;;123.40;59.50;;;7.90;99.90;;;;;;5069722;28;20062;-61
2021/12/15 12:00:27;;;;;;;122.65;56.35;;;7.80;99.90;;;;;;5069977;28;20020;-58
2021/12/15 12:02:57;;;;;;;111.00;55.40;;;7.80;99.90;;;;;;5079095;28;20589;-55
2021/12/15 12:05:30;;;;;;;147.63;73.25;;;7.70;99.90;;;;;;5074502;28;20423;-59
2021/12/15 12:08:06;;;;;;;173.80;86.18;;;7.80;99.90;;;;;;5074194;28;20047;-60
2021/12/15 12:10:43;;;;;;;150.02;76.43;;;7.80;99.90;;;;;;5075553;28;20033;-59
2021/12/15 12:13:19;;;;;;;142.20;73.78;;;7.80;99.90;;;;;;5086616;28;20028;-61
2021/12/15 12:15:47;;;;;;;171.30;85.63;;;7.90;99.90;;;;;;5082931;28;20349;-58
2021/12/15 12:18:16;;;;;;;135.55;72.82;;;7.80;99.90;;;;;;5091393;28;20081;-58
2021/12/15 12:20:44;;;;;;;159.02;83.35;;;7.90;99.90;;;;;;5092219;28;20103;-56
2021/12/15 12:23:14;;;;;;;155.38;80.88;;;7.70;99.90;;;;;;5089871;28;20090;-59
2021/12/15 12:25:47;;;;;;;140.15;75.40;;;7.80;99.90;;;;;;5089997;28;20421;-60
2021/12/15 12:28:19;;;;;;;142.88;73.03;;;7.90;99.90;;;;;;5091255;28;20031;-57
2021/12/15 12:30:48;;;;;;;178.82;88.72;;;8.00;99.90;;;;;;5092034;28;20020;-57
2021/12/15 12:33:16;;;;;;;141.80;74.18;;;7.90;99.90;;;;;;5072741;28;20040;-61
2021/12/15 12:35:56;;;;;;;138.07;74.03;;;7.90;99.90;;;;;;5071326;28;20029;-58
2021/12/15 12:38:25;;;;;;;146.93;77.55;;;7.90;99.90;;;;;;5070693;28;20048;-55
2021/12/15 12:41:01;;;;;;;157.85;81.38;;;8.00;99.90;;;;;;5068789;28;20032;-59
2021/12/15 12:43:30;;;;;;;140.70;74.90;;;7.90;99.90;;;;;;5069160;28;20497;-55
2021/12/15 12:46:21;;;;;;;147.48;79.93;;;7.90;99.90;;;;;;5069616;28;20394;-57
2021/12/15 12:59:56;;;;;;;178.10;90.85;;;7.70;99.90;;;;;;5090612;28;20058;-53
2021/12/15 13:02:25;;;;;;;159.55;80.38;;;7.80;99.90;;;;;;5091725;28;20020;-54
2021/12/15 13:04:51;;;;;;;146.55;74.72;;;7.80;99.90;;;;;;5091705;28;20059;-59
2021/12/15 13:07:52;;;;;;;134.85;71.85;;;7.90;99.90;;;;;;5091699;28;20024;-64
2021/12/15 13:10:22;;;;;;;157.38;77.70;;;7.90;99.90;;;;;;5084222;28;20125;-51
2021/12/15 13:12:48;;;;;;;141.95;71.10;;;7.90;99.90;;;;;;5076958;28;20028;-59
2021/12/15 13:15:33;;;;;;;134.02;67.30;;;7.80;99.90;;;;;;5080574;28;20028;-59
2021/12/15 13:18:03;;;;;;;157.13;77.22;;;7.80;99.90;;;;;;5079125;28;20028;-57
2021/12/15 13:20:34;;;;;;;171.48;89.90;;;7.90;99.90;;;;;;5093026;28;20024;-52
2021/12/15 13:23:31;;;;;;;177.55;97.60;;;7.80;99.90;;;;;;5092635;28;20032;-55
2021/12/15 13:28:56;;;;;;;;;;;7.80;99.90;;;;;;5087953;28;20157;-52
2021/12/15 13:31:28;;;;;;;158.82;87.25;;;7.90;99.90;;;;;;5080686;28;19915;-54
2021/12/15 13:33:57;;;;;;;160.20;87.30;;;7.90;99.90;;;;;;5081403;28;20028;-59
2021/12/15 13:36:25;;;;;;;148.77;82.95;;;7.90;99.90;;;;;;5090571;28;20028;-57
2021/12/15 13:38:58;;;;;;;163.60;85.10;;;7.70;99.90;;;;;;5092227;28;20024;-58
2021/12/15 13:44:35;;;;;;;136.55;73.15;;;7.60;99.90;;;;;;5072731;28;20031;-56
2021/12/15 13:47:14;;;;;;;138.00;72.35;;;7.60;99.90;;;;;;5088358;28;20143;-59
2021/12/15 13:49:48;;;;;;;136.30;70.95;;;7.70;99.90;;;;;;5071559;28;20120;-54
2021/12/15 13:52:19;;;;;;;140.82;73.57;;;7.60;99.90;;;;;;5072908;28;20024;-52
2021/12/15 13:54:44;;;;;;;128.60;69.75;;;7.50;99.90;;;;;;5075161;28;20029;-51
2021/12/15 13:57:13;;;;;;;151.98;80.40;;;7.50;99.90;;;;;;5074739;28;20029;-51
2021/12/15 13:59:40;;;;;;;144.98;77.20;;;7.50;99.90;;;;;;5074928;28;20474;-54
2021/12/15 14:02:17;;;;;;;165.80;83.75;;;7.50;99.90;;;;;;5073899;28;20020;-59
2021/12/15 14:04:44;;;;;;;163.82;89.60;;;7.60;99.90;;;;;;5071412;28;20040;-58
2021/12/15 14:07:28;;;;;;;155.48;83.00;;;7.50;99.90;;;;;;5071625;28;20394;-51
2021/12/15 14:10:24;;;;;;;204.32;112.22;;;7.50;99.90;;;;;;5072715;28;20031;-57
2021/12/15 14:12:50;;;;;;;250.90;135.10;;;7.40;99.90;;;;;;5059546;28;20518;-58
2021/12/15 14:15:24;;;;;;;384.75;203.52;;;7.20;99.90;;;;;;5073461;28;20078;-52
2021/12/15 14:18:07;;;;;;;382.77;203.70;;;6.90;99.90;;;;;;5075010;28;20467;-53
2021/12/15 14:20:37;;;;;;;411.13;228.15;;;6.60;99.90;;;;;;5073322;28;20376;-57
2021/12/15 14:23:06;;;;;;;373.70;208.55;;;6.40;99.90;;;;;;5075862;28;20024;-59
2021/12/15 14:25:35;;;;;;;411.08;235.30;;;6.30;99.90;;;;;;5075629;28;20024;-57
2021/12/15 14:28:10;;;;;;;375.83;201.02;;;6.10;99.90;;;;;;5074326;28;20033;-50
2021/12/15 14:30:38;;;;;;;373.85;196.80;;;6.00;99.90;;;;;;5073781;28;20067;-59
2021/12/15 14:33:16;;;;;;;356.25;180.82;;;6.00;99.90;;;;;;5074050;28;20077;-58
2021/12/15 14:35:42;;;;;;;329.13;168.52;;;5.90;99.90;;;;;;5073870;28;20036;-51
2021/12/15 14:38:08;;;;;;;284.13;149.48;;;5.90;99.90;;;;;;5074598;28;20020;-57
2021/12/15 14:40:33;;;;;;;281.50;142.15;;;6.00;99.90;;;;;;5074665;28;20051;-60
